Greater Rochester International Airport

Airport
ICAO code: 
KROC
Summary
ICAO Region: 
NAM
Territory: 
Location: 
Rochester, New York,
Coordinates: 
Aerial View: 
43° 7' 40.782" N, 77° 39' 57.953" W
Metar
Observation
KROC 060854Z 20023G33KT 10SM BKN060 09/03 A2967 RMK AO2 PK WND 23037/0800 SLP054 60004 T00890033 58023
Station
Rochester, Greater Rochester International Airport
Date/Time
2021-12-06 08:54:00
Wind direction
200°
Wind speed
23 kts
Lowest cloud amount
broken clouds
Temperature
8.9°C
Dew point
3.3°C
Humidity
67%
Weather condition
n/a

Description

Greater Rochester International Airport is a public use airport located 6 km southwest of the central business district of Rochester, a city in Monroe County, New York.

Climatology

Humid Continental climate (Köppen climate classification Dfb) - Variable weather patterns and a large seasonal temperature variance. Summers are often warm and humid with frequent thunderstorms and winters can be very cold with frequent snowfall and persistent snow cover.

Runways

Designator Length Width Surface Rops
7/25 1341 43 ASP Yes/Yes
10/28 1676 46 ASP Yes/Yes
4/22 2439 46 ASP Yes/Yes
Airport map: 
Aerial View: 

SKYbrary Partners:

Safety knowledge contributed by: